Time;durP1;ratioP1;P1;durP2;ratioP2;P2;SDS_P1;SDS_P2;PMS_P1;PMS_P2;Temp;Humidity;BMP_temperature;BMP_pressure;BME280_temperature;BME280_humidity;BME280_pressure;Samples;Min_cycle;Max_cycle;Signal;HPM_P1;HPM_P2
2022/03/03 00:00:23;;;;;;;;;;;;;;;;;;1047876;28;814;-48
2022/03/03 00:00:54;;;;;;;;;;;;;;;;;;1047736;28;897;-45
2022/03/03 00:01:24;;;;;;;;;;;;;;;;;;1048006;28;860;-45
2022/03/03 00:01:54;;;;;;;;;;;;;;;;;;1047743;28;814;-48
2022/03/03 00:02:25;;;;;;;;;;;;;;;;;;1047929;28;967;-48
2022/03/03 00:02:56;;;;;;;;;;;;;;;;;;1047740;28;936;-46
2022/03/03 00:03:26;;;;;;;;;;;;;;;;;;1047839;28;940;-47
2022/03/03 00:03:56;;;;;;;;;;;;;;;;;;1047794;28;778;-47
2022/03/03 00:04:27;;;;;;;;;;;;;;;;;;1047934;28;782;-47
2022/03/03 00:04:57;;;;;;;;;;;;;;;;;;1047788;28;1213;-45
2022/03/03 00:05:27;;;;;;;;;;;;;;;;;;1047700;28;806;-51
2022/03/03 00:05:58;;;;;;;;;;;;;;;;;;1047267;28;984;-48
2022/03/03 00:06:28;;;;;;;;;;;;;;;;;;1047887;28;916;-47
2022/03/03 00:06:58;;;;;;;;;;;;;;;;;;1047798;28;905;-45
2022/03/03 00:07:28;;;;;;;;;;;;;;;;;;1047788;28;877;-51
2022/03/03 00:07:59;;;;;;;;;;;;;;;;;;1047902;28;865;-50
2022/03/03 00:08:30;;;;;;;;;;;;;;;;;;1047817;28;857;-51
2022/03/03 00:09:00;;;;;;;;;;;;;;;;;;1047776;28;865;-49
2022/03/03 00:09:31;;;;;;;;;;;;;;;;;;1047806;28;759;-48
2022/03/03 00:10:03;;;;;;;;;;;;;;;;;;1047830;28;905;-47
2022/03/03 00:10:33;;;;;;;;;;;;;;;;;;1047900;28;933;-48
2022/03/03 00:11:04;;;;;;;;;;;;;;;;;;1047657;28;941;-46
2022/03/03 00:11:34;;;;;;;;;;;;;;;;;;1047908;28;956;-50
2022/03/03 00:12:05;;;;;;;;;;;;;;;;;;1047768;28;920;-50
2022/03/03 00:12:35;;;;;;;;;;;;;;;;;;1047862;28;945;-46
2022/03/03 00:13:06;;;;;;;;;;;;;;;;;;1047027;28;1898;-46
2022/03/03 00:13:37;;;;;;;;;;;;;;;;;;1047790;28;793;-50
2022/03/03 00:14:07;;;;;;;;;;;;;;;;;;1047632;28;912;-50
2022/03/03 00:14:38;;;;;;;;;;;;;;;;;;1048006;28;865;-48
2022/03/03 00:15:08;;;;;;;;;;;;;;;;;;1047557;28;908;-45
2022/03/03 00:15:38;;;;;;;;;;;;;;;;;;1047933;28;1019;-45
2022/03/03 00:16:09;;;;;;;;;;;;;;;;;;1047767;28;805;-48
2022/03/03 00:16:39;;;;;;;;;;;;;;;;;;1047825;28;908;-46
2022/03/03 00:17:09;;;;;;;;;;;;;;;;;;1047691;28;980;-49
2022/03/03 00:17:40;;;;;;;;;;;;;;;;;;1047771;28;1210;-47
2022/03/03 00:18:10;;;;;;;;;;;;;;;;;;1047831;28;798;-48
2022/03/03 00:18:41;;;;;;;;;;;;;;;;;;1048000;28;853;-46
2022/03/03 00:19:11;;;;;;;;;;;;;;;;;;1047659;28;944;-49
2022/03/03 00:19:42;;;;;;;;;;;;;;;;;;1047930;28;869;-45
2022/03/03 00:20:13;;;;;;;;;;;;;;;;;;1047702;28;949;-48
2022/03/03 00:20:43;;;;;;;;;;;;;;;;;;1047209;28;862;-47
2022/03/03 00:21:13;;;;;;;;;;;;;;;;;;1047809;28;881;-47
2022/03/03 00:21:44;;;;;;;;;;;;;;;;;;1047804;28;873;-50
2022/03/03 00:22:15;;;;;;;;;;;;;;;;;;1047834;28;1254;-49
2022/03/03 00:22:46;;;;;;;;;;;;;;;;;;1047915;28;929;-47
2022/03/03 00:23:16;;;;;;;;;;;;;;;;;;1047684;28;853;-46
2022/03/03 00:23:46;;;;;;;;;;;;;;;;;;1047851;28;864;-50
2022/03/03 00:24:17;;;;;;;;;;;;;;;;;;1047615;28;901;-48
2022/03/03 00:24:48;;;;;;;;;;;;;;;;;;1047850;28;857;-48
2022/03/03 00:25:19;;;;;;;;;;;;;;;;;;1047860;28;904;-47
2022/03/03 00:25:49;;;;;;;;;;;;;;;;;;1047664;28;834;-46
2022/03/03 00:26:20;;;;;;;;;;;;;;;;;;1047764;28;806;-48
2022/03/03 00:26:50;;;;;;;;;;;;;;;;;;1047716;28;881;-48
2022/03/03 00:27:21;;;;;;;;;;;;;;;;;;1047779;28;940;-46
2022/03/03 00:27:51;;;;;;;;;;;;;;;;;;1042636;28;1393;-46
2022/03/03 00:28:21;;;;;;;;;;;;;;;;;;1043357;28;791;-47
2022/03/03 00:28:52;;;;;;;;;;;;;;;;;;1043338;28;1015;-46
2022/03/03 00:29:22;;;;;;;;;;;;;;;;;;1043410;28;925;-45
2022/03/03 00:29:53;;;;;;;;;;;;;;;;;;1047704;28;759;-45
2022/03/03 00:30:23;;;;;;;;;;;;;;;;;;1047865;28;865;-46
2022/03/03 00:30:53;;;;;;;;;;;;;;;;;;1047794;28;873;-46
2022/03/03 00:31:24;;;;;;;;;;;;;;;;;;1047822;28;980;-46
2022/03/03 00:31:54;;;;;;;;;;;;;;;;;;1047766;28;908;-46
2022/03/03 00:32:24;;;;;;;;;;;;;;;;;;1047633;28;957;-45
2022/03/03 00:32:55;;;;;;;;;;;;;;;;;;1047819;28;2030;-45
2022/03/03 00:33:25;;;;;;;;;;;;;;;;;;1047729;28;917;-48
2022/03/03 00:33:55;;;;;;;;;;;;;;;;;;1047787;28;1148;-48
2022/03/03 00:34:26;;;;;;;;;;;;;;;;;;1047772;28;941;-46
2022/03/03 00:34:57;;;;;;;;;;;;;;;;;;1047653;28;1159;-48
2022/03/03 00:35:27;;;;;;;;;;;;;;;;;;1047091;28;853;-48
2022/03/03 00:35:58;;;;;;;;;;;;;;;;;;1047879;28;841;-47
2022/03/03 00:36:28;;;;;;;;;;;;;;;;;;1047599;28;885;-48
2022/03/03 00:36:58;;;;;;;;;;;;;;;;;;1047973;28;818;-45
2022/03/03 00:37:29;;;;;;;;;;;;;;;;;;1047428;28;810;-48
2022/03/03 00:38:00;;;;;;;;;;;;;;;;;;1047903;28;798;-48
2022/03/03 00:38:30;;;;;;;;;;;;;;;;;;1047649;28;917;-47
2022/03/03 00:39:02;;;;;;;;;;;;;;;;;;1047758;28;933;-50
2022/03/03 00:39:32;;;;;;;;;;;;;;;;;;1047751;28;917;-48
2022/03/03 00:40:04;;;;;;;;;;;;;;;;;;1047791;28;893;-48
2022/03/03 00:40:35;;;;;;;;;;;;;;;;;;1047552;28;898;-46
2022/03/03 00:41:05;;;;;;;;;;;;;;;;;;1047907;28;869;-50
2022/03/03 00:41:36;;;;;;;;;;;;;;;;;;1047677;28;846;-47
2022/03/03 00:42:06;;;;;;;;;;;;;;;;;;1047920;28;904;-48
2022/03/03 00:42:36;;;;;;;;;;;;;;;;;;1047024;28;901;-49
2022/03/03 00:43:08;;;;;;;;;;;;;;;;;;1047761;28;929;-46
2022/03/03 00:43:38;;;;;;;;;;;;;;;;;;1047835;28;814;-48
2022/03/03 00:44:09;;;;;;;;;;;;;;;;;;1047605;28;909;-50
2022/03/03 00:44:40;;;;;;;;;;;;;;;;;;1047819;28;762;-49
2022/03/03 00:45:10;;;;;;;;;;;;;;;;;;1047645;28;913;-49
2022/03/03 00:45:40;;;;;;;;;;;;;;;;;;1047855;28;858;-51
2022/03/03 00:46:11;;;;;;;;;;;;;;;;;;1047734;28;886;-46
2022/03/03 00:46:41;;;;;;;;;;;;;;;;;;1047672;28;873;-46
2022/03/03 00:47:11;;;;;;;;;;;;;;;;;;1047799;28;948;-50
2022/03/03 00:47:42;;;;;;;;;;;;;;;;;;1047749;28;870;-47
2022/03/03 00:48:12;;;;;;;;;;;;;;;;;;1047629;28;932;-48
2022/03/03 00:48:42;;;;;;;;;;;;;;;;;;1047614;28;1043;-51
2022/03/03 00:49:13;;;;;;;;;;;;;;;;;;1047728;28;802;-48
2022/03/03 00:49:43;;;;;;;;;;;;;;;;;;1047889;28;933;-47
2022/03/03 00:50:14;;;;;;;;;;;;;;;;;;1047136;28;838;-46
2022/03/03 00:50:44;;;;;;;;;;;;;;;;;;1047662;28;1599;-48
2022/03/03 00:51:15;;;;;;;;;;;;;;;;;;1047709;28;877;-47
2022/03/03 00:51:45;;;;;;;;;;;;;;;;;;1047802;28;984;-48
2022/03/03 00:52:15;;;;;;;;;;;;;;;;;;1047697;28;1280;-46
2022/03/03 00:52:46;;;;;;;;;;;;;;;;;;1047719;28;1918;-46
2022/03/03 00:53:16;;;;;;;;;;;;;;;;;;1047620;28;837;-48
2022/03/03 00:53:47;;;;;;;;;;;;;;;;;;1047847;28;913;-49
2022/03/03 00:54:18;;;;;;;;;;;;;;;;;;1047758;28;776;-50
2022/03/03 00:54:48;;;;;;;;;;;;;;;;;;1047659;28;1699;-49
2022/03/03 00:55:18;;;;;;;;;;;;;;;;;;1047767;28;893;-48
2022/03/03 00:55:49;;;;;;;;;;;;;;;;;;1047575;28;925;-50
2022/03/03 00:56:20;;;;;;;;;;;;;;;;;;1043639;28;941;-49
2022/03/03 00:56:50;;;;;;;;;;;;;;;;;;1043599;28;992;-50
2022/03/03 00:57:20;;;;;;;;;;;;;;;;;;1043040;28;787;-46
2022/03/03 00:57:51;;;;;;;;;;;;;;;;;;1043423;28;889;-46
2022/03/03 00:58:21;;;;;;;;;;;;;;;;;;1043627;28;873;-49
2022/03/03 00:58:51;;;;;;;;;;;;;;;;;;1043565;28;920;-45
2022/03/03 00:59:22;;;;;;;;;;;;;;;;;;1043669;28;790;-49
2022/03/03 00:59:52;;;;;;;;;;;;;;;;;;1043513;28;1274;-50
2022/03/03 01:00:22;;;;;;;;;;;;;;;;;;1043684;28;869;-45
2022/03/03 01:00:52;;;;;;;;;;;;;;;;;;1043556;28;956;-48
2022/03/03 01:01:23;;;;;;;;;;;;;;;;;;1043527;28;977;-49
2022/03/03 01:01:53;;;;;;;;;;;;;;;;;;1043595;28;1047;-48
2022/03/03 01:02:24;;;;;;;;;;;;;;;;;;1043598;28;912;-46
2022/03/03 01:02:54;;;;;;;;;;;;;;;;;;1043566;28;932;-48
2022/03/03 01:03:24;;;;;;;;;;;;;;;;;;1043590;28;877;-46
2022/03/03 01:03:55;;;;;;;;;;;;;;;;;;1043425;28;920;-44
2022/03/03 01:04:25;;;;;;;;;;;;;;;;;;1043666;28;885;-45
2022/03/03 01:04:55;;;;;;;;;;;;;;;;;;1042889;28;948;-45
2022/03/03 01:05:26;;;;;;;;;;;;;;;;;;1043782;28;1751;-46
2022/03/03 01:05:56;;;;;;;;;;;;;;;;;;1044402;28;947;-48
2022/03/03 01:06:27;;;;;;;;;;;;;;;;;;1044183;28;992;-45
2022/03/03 01:06:57;;;;;;;;;;;;;;;;;;1044400;28;980;-48
2022/03/03 01:07:27;;;;;;;;;;;;;;;;;;1044375;28;885;-49
2022/03/03 01:07:58;;;;;;;;;;;;;;;;;;1044217;28;933;-49
2022/03/03 01:08:28;;;;;;;;;;;;;;;;;;1044321;28;1367;-49
2022/03/03 01:08:58;;;;;;;;;;;;;;;;;;1044306;28;937;-50
2022/03/03 01:09:29;;;;;;;;;;;;;;;;;;1044428;28;835;-48
2022/03/03 01:09:59;;;;;;;;;;;;;;;;;;1044344;28;964;-46
2022/03/03 01:10:29;;;;;;;;;;;;;;;;;;1044272;28;921;-46
2022/03/03 01:11:00;;;;;;;;;;;;;;;;;;1044511;28;873;-48
2022/03/03 01:11:30;;;;;;;;;;;;;;;;;;1044406;28;925;-45
2022/03/03 01:12:00;;;;;;;;;;;;;;;;;;1044288;28;822;-47
2022/03/03 01:12:31;;;;;;;;;;;;;;;;;;1043695;28;944;-52
2022/03/03 01:13:01;;;;;;;;;;;;;;;;;;1044302;28;1973;-47
2022/03/03 01:13:32;;;;;;;;;;;;;;;;;;1044383;28;852;-48
2022/03/03 01:14:03;;;;;;;;;;;;;;;;;;1044323;28;846;-48
2022/03/03 01:14:33;;;;;;;;;;;;;;;;;;1044307;28;818;-45
2022/03/03 01:15:04;;;;;;;;;;;;;;;;;;1044361;28;940;-50
2022/03/03 01:15:35;;;;;;;;;;;;;;;;;;1044292;28;869;-45
2022/03/03 01:16:05;;;;;;;;;;;;;;;;;;1044328;28;833;-47
2022/03/03 01:16:36;;;;;;;;;;;;;;;;;;1044243;28;912;-46
2022/03/03 01:17:06;;;;;;;;;;;;;;;;;;1044317;28;830;-46
2022/03/03 01:17:37;;;;;;;;;;;;;;;;;;1044360;28;849;-44
2022/03/03 01:18:07;;;;;;;;;;;;;;;;;;1039768;28;853;-50
2022/03/03 01:18:37;;;;;;;;;;;;;;;;;;1040035;28;883;-51
2022/03/03 01:19:08;;;;;;;;;;;;;;;;;;1039969;28;783;-48
2022/03/03 01:19:38;;;;;;;;;;;;;;;;;;1039258;28;810;-46
2022/03/03 01:20:09;;;;;;;;;;;;;;;;;;1044325;28;921;-47
2022/03/03 01:20:39;;;;;;;;;;;;;;;;;;1044342;28;870;-47
2022/03/03 01:21:09;;;;;;;;;;;;;;;;;;1044229;28;958;-47
2022/03/03 01:21:40;;;;;;;;;;;;;;;;;;1044400;28;900;-47
2022/03/03 01:22:10;;;;;;;;;;;;;;;;;;1044317;28;825;-49
2022/03/03 01:22:40;;;;;;;;;;;;;;;;;;1044395;28;900;-49
2022/03/03 01:23:11;;;;;;;;;;;;;;;;;;1044374;28;866;-46
2022/03/03 01:23:41;;;;;;;;;;;;;;;;;;1044306;28;908;-45
2022/03/03 01:24:11;;;;;;;;;;;;;;;;;;1044305;28;885;-45
2022/03/03 01:24:45;;;;;;;;;;;;;;;;;;1044316;28;806;-45
2022/03/03 01:25:15;;;;;;;;;;;;;;;;;;1044285;28;877;-48
2022/03/03 01:25:46;;;;;;;;;;;;;;;;;;1044423;28;960;-44
2022/03/03 01:26:17;;;;;;;;;;;;;;;;;;1039658;28;921;-46
2022/03/03 01:26:47;;;;;;;;;;;;;;;;;;1039759;28;929;-48
2022/03/03 01:27:18;;;;;;;;;;;;;;;;;;1039221;28;991;-46
2022/03/03 01:27:48;;;;;;;;;;;;;;;;;;1039958;28;770;-46
2022/03/03 01:28:19;;;;;;;;;;;;;;;;;;1044355;28;914;-51
2022/03/03 01:28:50;;;;;;;;;;;;;;;;;;1044174;28;838;-50
2022/03/03 01:29:20;;;;;;;;;;;;;;;;;;1044425;28;837;-47
2022/03/03 01:29:50;;;;;;;;;;;;;;;;;;1044290;28;1718;-46
2022/03/03 01:30:21;;;;;;;;;;;;;;;;;;1044264;28;972;-45
2022/03/03 01:30:51;;;;;;;;;;;;;;;;;;1044269;28;1252;-50
2022/03/03 01:31:21;;;;;;;;;;;;;;;;;;1044360;28;834;-49
2022/03/03 01:31:52;;;;;;;;;;;;;;;;;;1044310;28;814;-48
2022/03/03 01:32:22;;;;;;;;;;;;;;;;;;1044443;28;905;-46
2022/03/03 01:32:53;;;;;;;;;;;;;;;;;;1044028;28;1975;-46
2022/03/03 01:33:23;;;;;;;;;;;;;;;;;;1044378;28;822;-44
2022/03/03 01:33:53;;;;;;;;;;;;;;;;;;1044258;28;889;-48
2022/03/03 01:34:24;;;;;;;;;;;;;;;;;;1043700;28;897;-50
2022/03/03 01:34:54;;;;;;;;;;;;;;;;;;1044142;28;1277;-47
2022/03/03 01:35:25;;;;;;;;;;;;;;;;;;1044230;28;972;-46
2022/03/03 01:35:55;;;;;;;;;;;;;;;;;;1044283;28;901;-46
2022/03/03 01:36:26;;;;;;;;;;;;;;;;;;1044353;28;781;-44
2022/03/03 01:36:56;;;;;;;;;;;;;;;;;;1044116;28;814;-46
2022/03/03 01:37:26;;;;;;;;;;;;;;;;;;1039881;28;830;-45
2022/03/03 01:37:57;;;;;;;;;;;;;;;;;;1039732;28;881;-45
2022/03/03 01:38:27;;;;;;;;;;;;;;;;;;1039785;28;1309;-46
2022/03/03 01:38:57;;;;;;;;;;;;;;;;;;1040042;28;830;-45
2022/03/03 01:39:28;;;;;;;;;;;;;;;;;;1044070;28;913;-46
2022/03/03 01:39:58;;;;;;;;;;;;;;;;;;1044307;28;889;-44
2022/03/03 01:40:28;;;;;;;;;;;;;;;;;;1044219;28;860;-46
2022/03/03 01:40:59;;;;;;;;;;;;;;;;;;1044296;28;952;-46
2022/03/03 01:41:29;;;;;;;;;;;;;;;;;;1044210;28;829;-46
2022/03/03 01:42:00;;;;;;;;;;;;;;;;;;1043603;28;803;-45
2022/03/03 01:42:30;;;;;;;;;;;;;;;;;;1044205;28;988;-45
2022/03/03 01:43:00;;;;;;;;;;;;;;;;;;1044293;28;901;-44
2022/03/03 01:43:31;;;;;;;;;;;;;;;;;;1044144;28;893;-46
2022/03/03 01:44:01;;;;;;;;;;;;;;;;;;1044372;28;901;-45
2022/03/03 01:44:32;;;;;;;;;;;;;;;;;;1044107;28;802;-47
2022/03/03 01:45:03;;;;;;;;;;;;;;;;;;1044250;28;842;-46
2022/03/03 01:45:34;;;;;;;;;;;;;;;;;;1044131;28;822;-46
2022/03/03 01:46:04;;;;;;;;;;;;;;;;;;1044286;28;798;-46
2022/03/03 01:46:35;;;;;;;;;;;;;;;;;;1044177;28;874;-45
2022/03/03 01:47:14;;;;;;;;;;;;;;;;;;1044357;28;905;-47
2022/03/03 01:47:44;;;;;;;;;;;;;;;;;;1043954;28;937;-51
2022/03/03 01:48:15;;;;;;;;;;;;;;;;;;1044240;28;909;-47
2022/03/03 01:48:45;;;;;;;;;;;;;;;;;;1043923;28;1116;-45
2022/03/03 01:49:16;;;;;;;;;;;;;;;;;;1043666;28;842;-47
2022/03/03 01:49:47;;;;;;;;;;;;;;;;;;1044048;28;799;-50
2022/03/03 01:50:17;;;;;;;;;;;;;;;;;;1044314;28;909;-45
2022/03/03 01:50:49;;;;;;;;;;;;;;;;;;1044200;28;871;-51
2022/03/03 01:51:20;;;;;;;;;;;;;;;;;;1044229;28;948;-49
2022/03/03 01:51:50;;;;;;;;;;;;;;;;;;1044103;28;965;-46
2022/03/03 01:52:21;;;;;;;;;;;;;;;;;;1044073;28;1416;-47
2022/03/03 01:52:51;;;;;;;;;;;;;;;;;;1047691;28;1917;-47
2022/03/03 01:53:22;;;;;;;;;;;;;;;;;;1048257;28;854;-47
2022/03/03 01:53:52;;;;;;;;;;;;;;;;;;1047807;28;878;-50
2022/03/03 01:54:23;;;;;;;;;;;;;;;;;;1048436;28;944;-45
2022/03/03 01:54:53;;;;;;;;;;;;;;;;;;1048326;28;849;-47
2022/03/03 01:55:24;;;;;;;;;;;;;;;;;;1048458;28;873;-51
2022/03/03 01:55:55;;;;;;;;;;;;;;;;;;1048063;28;1124;-50
2022/03/03 01:56:25;;;;;;;;;;;;;;;;;;1048392;28;923;-48
2022/03/03 01:56:56;;;;;;;;;;;;;;;;;;1047591;28;802;-51
2022/03/03 01:57:27;;;;;;;;;;;;;;;;;;1048333;28;944;-47
2022/03/03 01:57:59;;;;;;;;;;;;;;;;;;1047978;28;1750;-47
2022/03/03 01:58:30;;;;;;;;;;;;;;;;;;1048316;28;1008;-48
2022/03/03 01:59:00;;;;;;;;;;;;;;;;;;1048314;28;865;-49
2022/03/03 01:59:30;;;;;;;;;;;;;;;;;;1048316;28;984;-44
2022/03/03 02:00:02;;;;;;;;;;;;;;;;;;1048301;28;802;-44
2022/03/03 02:00:42;;;;;;;;;;;;;;;;;;1048326;28;797;-46
2022/03/03 02:01:14;;;;;;;;;;;;;;;;;;1048386;28;991;-46
2022/03/03 02:01:45;;;;;;;;;;;;;;;;;;1048224;28;936;-47
2022/03/03 02:02:15;;;;;;;;;;;;;;;;;;1048197;28;1734;-46
2022/03/03 02:02:46;;;;;;;;;;;;;;;;;;1048347;28;933;-46
2022/03/03 02:03:16;;;;;;;;;;;;;;;;;;1048245;28;884;-45
2022/03/03 02:03:46;;;;;;;;;;;;;;;;;;1048308;28;941;-48
2022/03/03 02:04:17;;;;;;;;;;;;;;;;;;1047560;28;905;-46
2022/03/03 02:04:48;;;;;;;;;;;;;;;;;;1048239;28;798;-45
2022/03/03 02:05:18;;;;;;;;;;;;;;;;;;1043856;28;1413;-45
2022/03/03 02:05:49;;;;;;;;;;;;;;;;;;1043835;28;787;-45
2022/03/03 02:06:19;;;;;;;;;;;;;;;;;;1043747;28;825;-44
2022/03/03 02:06:49;;;;;;;;;;;;;;;;;;1044036;28;1318;-46
2022/03/03 02:07:20;;;;;;;;;;;;;;;;;;1047598;28;1173;-45
2022/03/03 02:07:50;;;;;;;;;;;;;;;;;;1048351;28;959;-44
2022/03/03 02:08:22;;;;;;;;;;;;;;;;;;1048127;28;821;-44
2022/03/03 02:08:52;;;;;;;;;;;;;;;;;;1048368;28;881;-45
2022/03/03 02:09:23;;;;;;;;;;;;;;;;;;1043776;28;1052;-47
2022/03/03 02:09:53;;;;;;;;;;;;;;;;;;1043905;28;846;-46
2022/03/03 02:10:24;;;;;;;;;;;;;;;;;;1043766;28;843;-45
2022/03/03 02:10:54;;;;;;;;;;;;;;;;;;1043897;28;824;-46
2022/03/03 02:11:25;;;;;;;;;;;;;;;;;;1047512;28;893;-46
2022/03/03 02:11:55;;;;;;;;;;;;;;;;;;1048423;28;936;-43
2022/03/03 02:12:26;;;;;;;;;;;;;;;;;;1048130;28;936;-45
2022/03/03 02:12:56;;;;;;;;;;;;;;;;;;1048171;28;1906;-44
2022/03/03 02:13:27;;;;;;;;;;;;;;;;;;1048261;28;802;-44
2022/03/03 02:13:58;;;;;;;;;;;;;;;;;;1048218;28;874;-46
2022/03/03 02:14:28;;;;;;;;;;;;;;;;;;1048185;28;1020;-44
2022/03/03 02:14:59;;;;;;;;;;;;;;;;;;1048227;28;889;-45
2022/03/03 02:15:29;;;;;;;;;;;;;;;;;;1048277;28;909;-48
2022/03/03 02:16:00;;;;;;;;;;;;;;;;;;1048327;28;798;-44
2022/03/03 02:16:30;;;;;;;;;;;;;;;;;;1047966;28;877;-48
2022/03/03 02:17:01;;;;;;;;;;;;;;;;;;1048183;28;1004;-45
2022/03/03 02:17:31;;;;;;;;;;;;;;;;;;1048133;28;826;-47
2022/03/03 02:18:01;;;;;;;;;;;;;;;;;;1048183;28;849;-46
2022/03/03 02:18:38;;;;;;;;;;;;;;;;;;1048319;28;862;-46
2022/03/03 02:19:13;;;;;;;;;;;;;;;;;;1047381;28;935;-44
2022/03/03 02:19:43;;;;;;;;;;;;;;;;;;1048295;28;834;-45
2022/03/03 02:20:18;;;;;;;;;;;;;;;;;;1048193;28;980;-45
2022/03/03 02:20:49;;;;;;;;;;;;;;;;;;1048333;28;782;-46
2022/03/03 02:21:20;;;;;;;;;;;;;;;;;;1048051;28;1035;-46
2022/03/03 02:21:51;;;;;;;;;;;;;;;;;;1048178;28;862;-46
2022/03/03 02:22:21;;;;;;;;;;;;;;;;;;1048180;28;822;-48
2022/03/03 02:22:52;;;;;;;;;;;;;;;;;;1048268;28;928;-44
2022/03/03 02:23:23;;;;;;;;;;;;;;;;;;1048063;28;838;-49
2022/03/03 02:23:53;;;;;;;;;;;;;;;;;;1048447;28;923;-47
2022/03/03 02:24:23;;;;;;;;;;;;;;;;;;1048021;28;900;-46
2022/03/03 02:24:54;;;;;;;;;;;;;;;;;;1048410;28;798;-48
2022/03/03 02:25:25;;;;;;;;;;;;;;;;;;1048107;28;537;-44
2022/03/03 02:25:56;;;;;;;;;;;;;;;;;;1048277;28;798;-47
2022/03/03 02:26:26;;;;;;;;;;;;;;;;;;1047533;28;937;-45
2022/03/03 02:26:59;;;;;;;;;;;;;;;;;;1048281;28;833;-47
2022/03/03 02:27:29;;;;;;;;;;;;;;;;;;1047934;28;1000;-47
2022/03/03 02:27:59;;;;;;;;;;;;;;;;;;1048300;28;862;-47
2022/03/03 02:28:30;;;;;;;;;;;;;;;;;;1048106;28;968;-46
2022/03/03 02:29:00;;;;;;;;;;;;;;;;;;1048294;28;898;-47
2022/03/03 02:29:31;;;;;;;;;;;;;;;;;;1048065;28;889;-45
2022/03/03 02:30:02;;;;;;;;;;;;;;;;;;1048252;28;844;-47
2022/03/03 02:30:33;;;;;;;;;;;;;;;;;;1048288;28;831;-46
2022/03/03 02:31:03;;;;;;;;;;;;;;;;;;1048135;28;853;-45
2022/03/03 02:31:33;;;;;;;;;;;;;;;;;;1048252;28;837;-47
2022/03/03 02:32:05;;;;;;;;;;;;;;;;;;1048121;28;912;-48
2022/03/03 02:32:35;;;;;;;;;;;;;;;;;;1048176;28;930;-47
2022/03/03 02:33:05;;;;;;;;;;;;;;;;;;1048060;28;1970;-49
2022/03/03 02:33:36;;;;;;;;;;;;;;;;;;1047526;28;937;-48
2022/03/03 02:34:06;;;;;;;;;;;;;;;;;;1048045;28;1703;-47
2022/03/03 02:34:37;;;;;;;;;;;;;;;;;;1043753;28;1359;-45
2022/03/03 02:35:07;;;;;;;;;;;;;;;;;;1043548;28;988;-47
2022/03/03 02:35:38;;;;;;;;;;;;;;;;;;1043820;28;868;-49
2022/03/03 02:36:14;;;;;;;;;;;;;;;;;;1043613;28;929;-46
2022/03/03 02:36:44;;;;;;;;;;;;;;;;;;1043490;28;1274;-48
2022/03/03 02:37:15;;;;;;;;;;;;;;;;;;1043949;28;893;-47
2022/03/03 02:37:46;;;;;;;;;;;;;;;;;;1043595;28;1092;-49
2022/03/03 02:38:16;;;;;;;;;;;;;;;;;;1043730;28;917;-47
2022/03/03 02:38:47;;;;;;;;;;;;;;;;;;1048153;28;832;-47
2022/03/03 02:39:18;;;;;;;;;;;;;;;;;;1048150;28;857;-50
2022/03/03 02:39:48;;;;;;;;;;;;;;;;;;1048125;28;1131;-46
2022/03/03 02:40:21;;;;;;;;;;;;;;;;;;1048149;28;948;-45
2022/03/03 02:40:52;;;;;;;;;;;;;;;;;;1047922;28;838;-46
2022/03/03 02:41:23;;;;;;;;;;;;;;;;;;1047723;28;996;-48
2022/03/03 02:41:53;;;;;;;;;;;;;;;;;;1048134;28;945;-48
2022/03/03 02:42:23;;;;;;;;;;;;;;;;;;1048002;28;627;-45
2022/03/03 02:42:54;;;;;;;;;;;;;;;;;;1048223;28;838;-50
2022/03/03 02:43:24;;;;;;;;;;;;;;;;;;1047989;28;925;-45
2022/03/03 02:43:56;;;;;;;;;;;;;;;;;;1048202;28;894;-49
2022/03/03 02:44:26;;;;;;;;;;;;;;;;;;1048055;28;889;-47
2022/03/03 02:44:56;;;;;;;;;;;;;;;;;;1048214;28;949;-45
2022/03/03 02:45:26;;;;;;;;;;;;;;;;;;1048084;28;1627;-45
2022/03/03 02:45:57;;;;;;;;;;;;;;;;;;1048078;28;858;-45
2022/03/03 02:46:27;;;;;;;;;;;;;;;;;;1048028;28;936;-47
2022/03/03 02:46:58;;;;;;;;;;;;;;;;;;1048220;28;921;-45
2022/03/03 02:47:28;;;;;;;;;;;;;;;;;;1047945;28;876;-46
2022/03/03 02:47:58;;;;;;;;;;;;;;;;;;1048254;28;794;-44
2022/03/03 02:48:29;;;;;;;;;;;;;;;;;;1047402;28;873;-46
2022/03/03 02:48:59;;;;;;;;;;;;;;;;;;1047960;28;1231;-44
2022/03/03 02:49:29;;;;;;;;;;;;;;;;;;1048244;28;885;-44
2022/03/03 02:50:00;;;;;;;;;;;;;;;;;;1047958;28;778;-47
2022/03/03 02:50:30;;;;;;;;;;;;;;;;;;1048063;28;1696;-46
2022/03/03 02:51:00;;;;;;;;;;;;;;;;;;1048043;28;841;-44
2022/03/03 02:51:31;;;;;;;;;;;;;;;;;;1048137;28;830;-45
2022/03/03 02:52:01;;;;;;;;;;;;;;;;;;1048071;28;924;-45
2022/03/03 02:52:32;;;;;;;;;;;;;;;;;;1048094;28;841;-45
2022/03/03 02:53:02;;;;;;;;;;;;;;;;;;1047841;28;1897;-44
2022/03/03 02:53:33;;;;;;;;;;;;;;;;;;1048181;28;952;-44
2022/03/03 02:54:03;;;;;;;;;;;;;;;;;;1047978;28;877;-45
2022/03/03 02:54:34;;;;;;;;;;;;;;;;;;1048154;28;857;-47
2022/03/03 02:55:05;;;;;;;;;;;;;;;;;;1047925;28;865;-45
2022/03/03 02:55:35;;;;;;;;;;;;;;;;;;1048085;28;1112;-45
2022/03/03 02:56:06;;;;;;;;;;;;;;;;;;1047003;28;1194;-43
2022/03/03 02:57:53;;;;;;;;;;;;;;;;;;1047743;28;834;-44
2022/03/03 02:58:15;;;;;;;;;;;;;;;;;;1043823;28;1191;-44
2022/03/03 02:58:46;;;;;;;;;;;;;;;;;;1044003;28;850;-46
2022/03/03 02:59:16;;;;;;;;;;;;;;;;;;1043857;28;952;-44
2022/03/03 02:59:46;;;;;;;;;;;;;;;;;;1044009;28;830;-43
2022/03/03 03:00:17;;;;;;;;;;;;;;;;;;1043947;28;1495;-45
2022/03/03 03:00:47;;;;;;;;;;;;;;;;;;1043835;28;968;-45
2022/03/03 03:01:17;;;;;;;;;;;;;;;;;;1043872;28;1000;-48
2022/03/03 03:01:48;;;;;;;;;;;;;;;;;;1043932;28;814;-47
2022/03/03 03:02:18;;;;;;;;;;;;;;;;;;1043990;28;886;-45
2022/03/03 03:02:49;;;;;;;;;;;;;;;;;;1044051;28;791;-48
2022/03/03 03:03:19;;;;;;;;;;;;;;;;;;1043033;28;794;-47
2022/03/03 03:03:50;;;;;;;;;;;;;;;;;;1044025;28;854;-44
2022/03/03 03:04:20;;;;;;;;;;;;;;;;;;1043817;28;949;-46
2022/03/03 03:04:50;;;;;;;;;;;;;;;;;;1044000;28;835;-45
2022/03/03 03:05:21;;;;;;;;;;;;;;;;;;1047391;28;1555;-43
2022/03/03 03:05:51;;;;;;;;;;;;;;;;;;1047862;28;781;-48
2022/03/03 03:06:22;;;;;;;;;;;;;;;;;;1047661;28;1043;-48
2022/03/03 03:06:52;;;;;;;;;;;;;;;;;;1047845;28;953;-45
2022/03/03 03:07:22;;;;;;;;;;;;;;;;;;1043776;28;924;-44
2022/03/03 03:07:53;;;;;;;;;;;;;;;;;;1044010;28;951;-45
2022/03/03 03:08:23;;;;;;;;;;;;;;;;;;1043581;28;1054;-44
2022/03/03 03:08:53;;;;;;;;;;;;;;;;;;1044079;28;834;-43
2022/03/03 03:09:24;;;;;;;;;;;;;;;;;;1043805;28;1014;-45
2022/03/03 03:09:54;;;;;;;;;;;;;;;;;;1044026;28;821;-45
2022/03/03 03:10:24;;;;;;;;;;;;;;;;;;1043810;28;921;-47
2022/03/03 03:10:55;;;;;;;;;;;;;;;;;;1043353;28;814;-44
2022/03/03 03:11:25;;;;;;;;;;;;;;;;;;1043744;28;964;-45
2022/03/03 03:11:55;;;;;;;;;;;;;;;;;;1044155;28;817;-46
2022/03/03 03:12:26;;;;;;;;;;;;;;;;;;1043753;28;798;-42
2022/03/03 03:12:56;;;;;;;;;;;;;;;;;;1044053;28;1910;-45
2022/03/03 03:13:27;;;;;;;;;;;;;;;;;;1043753;28;881;-47
2022/03/03 03:13:57;;;;;;;;;;;;;;;;;;1043912;28;814;-44
2022/03/03 03:14:27;;;;;;;;;;;;;;;;;;1043762;28;968;-43
2022/03/03 03:14:58;;;;;;;;;;;;;;;;;;1043918;28;975;-46
2022/03/03 03:15:28;;;;;;;;;;;;;;;;;;1039413;28;904;-46
2022/03/03 03:15:58;;;;;;;;;;;;;;;;;;1039568;28;897;-46
2022/03/03 03:16:29;;;;;;;;;;;;;;;;;;1039364;28;917;-42
2022/03/03 03:16:59;;;;;;;;;;;;;;;;;;1039481;28;818;-44
2022/03/03 03:17:29;;;;;;;;;;;;;;;;;;1043655;28;787;-47
2022/03/03 03:18:09;;;;;;;;;;;;;;;;;;1043271;28;854;-50
2022/03/03 03:18:40;;;;;;;;;;;;;;;;;;1043844;28;992;-47
2022/03/03 03:19:10;;;;;;;;;;;;;;;;;;1043881;28;872;-44
2022/03/03 03:19:41;;;;;;;;;;;;;;;;;;1039428;28;953;-45
2022/03/03 03:20:12;;;;;;;;;;;;;;;;;;1039328;28;953;-49
2022/03/03 03:20:43;;;;;;;;;;;;;;;;;;1039447;28;839;-44
2022/03/03 03:21:13;;;;;;;;;;;;;;;;;;1039877;28;945;-47
2022/03/03 03:21:44;;;;;;;;;;;;;;;;;;1043698;28;972;-44
2022/03/03 03:22:14;;;;;;;;;;;;;;;;;;1043976;28;892;-47
2022/03/03 03:22:45;;;;;;;;;;;;;;;;;;1043788;28;893;-44
2022/03/03 03:23:17;;;;;;;;;;;;;;;;;;1043852;28;936;-45
2022/03/03 03:23:48;;;;;;;;;;;;;;;;;;1043881;28;830;-43
2022/03/03 03:24:18;;;;;;;;;;;;;;;;;;1043711;28;921;-45
2022/03/03 03:24:49;;;;;;;;;;;;;;;;;;1043870;28;877;-44
2022/03/03 03:25:19;;;;;;;;;;;;;;;;;;1043477;28;925;-46
2022/03/03 03:25:49;;;;;;;;;;;;;;;;;;1043600;28;846;-45
2022/03/03 03:26:20;;;;;;;;;;;;;;;;;;1043749;28;818;-44
2022/03/03 03:26:50;;;;;;;;;;;;;;;;;;1043817;28;908;-46
2022/03/03 03:27:21;;;;;;;;;;;;;;;;;;1043899;28;941;-45
2022/03/03 03:27:51;;;;;;;;;;;;;;;;;;1043678;28;834;-44
2022/03/03 03:28:21;;;;;;;;;;;;;;;;;;1043307;28;763;-43
2022/03/03 03:28:52;;;;;;;;;;;;;;;;;;1043939;28;819;-44
2022/03/03 03:29:22;;;;;;;;;;;;;;;;;;1043708;28;914;-44
2022/03/03 03:29:52;;;;;;;;;;;;;;;;;;1043870;28;1687;-45
2022/03/03 03:30:23;;;;;;;;;;;;;;;;;;1043819;28;873;-47
2022/03/03 03:30:53;;;;;;;;;;;;;;;;;;1043718;28;881;-44
2022/03/03 03:31:24;;;;;;;;;;;;;;;;;;1039379;28;905;-44
2022/03/03 03:31:54;;;;;;;;;;;;;;;;;;1039392;28;936;-45
2022/03/03 03:32:24;;;;;;;;;;;;;;;;;;1039341;28;889;-44
2022/03/03 03:32:55;;;;;;;;;;;;;;;;;;1038661;28;1983;-42
2022/03/03 03:33:25;;;;;;;;;;;;;;;;;;1043708;28;941;-43
2022/03/03 03:33:55;;;;;;;;;;;;;;;;;;1043938;28;738;-44
2022/03/03 03:34:25;;;;;;;;;;;;;;;;;;1043755;28;1213;-44
2022/03/03 03:34:57;;;;;;;;;;;;;;;;;;1043655;28;912;-45
2022/03/03 03:35:27;;;;;;;;;;;;;;;;;;1043817;28;1737;-44
2022/03/03 03:35:57;;;;;;;;;;;;;;;;;;1043790;28;874;-42
2022/03/03 03:36:28;;;;;;;;;;;;;;;;;;1043713;28;821;-43
2022/03/03 03:36:58;;;;;;;;;;;;;;;;;;1043853;28;849;-46